NCAR-RAP Real-Time Weather Data

Output produced by METARs form (23 January 2018  15:37 UTC)
found at http://weather.rap.ucar.edu/surface/
 
RJFK 231200Z 33012KT 9999 FEW015 BKN040 02/M04 Q1019
RJFK 231100Z 34014KT 9999 FEW015 BKN040 02/M03 Q1018
RJFK 231000Z 34011KT 9999 FEW015 SCT025 BKN040 03/M02 Q1018
RJFK 230900Z 34008KT 9999 FEW015 SCT025 BKN040 04/M01 Q1017 RMK 1CU015 3CU025 7CU040 A3006
RJFK 230800Z 34013KT 9999 FEW015 SCT035 BKN045 05/M01 Q1016 RMK 1CU015 3CU035 5CU045 A3003
RJFK 230700Z 33015KT 9999 FEW015 SCT040 05/M01 Q1016 RMK 1CU015 3CU040 A3002
RJFK 230600Z 34012KT 310V020 9999 FEW015 SCT025 BKN030 06/M00 Q1016 RMK 1CU015 3CU025 5CU030 A3001
RJFK 230500Z 32017KT 9999 FEW015 SCT030 BKN040 07/00 Q1016 RMK 1CU015 4CU030 6CU040 A3000
RJFK 230434Z 32017G27KT 9999 FEW020 BKN035 07/M00 Q1016 RMK 1CU020 6CU035 A3000
RJFK 230400Z 33017KT 9999 FEW020 BKN040 08/M01 Q1016 RMK 1CU020 5CU040 A3000
RJFK 230300Z 33016G27KT 9999 FEW020 SCT035 08/M00 Q1016 RMK 1CU020 3CU035 A3002
RJFK 230212Z 31017G28KT 9999 FEW015 SCT030 08/M00 Q1017 RMK 1CU015 3CU030 A3004
RJFK 230200Z 33018KT 9999 FEW015 SCT030 08/00 Q1017 WS R34
RJFK 230129Z 33016G26KT 9999 FEW015 SCT020 09/03 Q1017 RMK 1CU015 3CU020 A3005
RJFK 230100Z 33018KT 9999 FEW015 08/02 Q1017 RMK 1CU015 A3004
RJFK 230041Z 33015G26KT 9999 FEW015 08/02 Q1017 RMK 1CU015 A3003
RJFK 230000Z 33010KT 9999 FEW010 07/04 Q1016 RMK 1CU010 A3001
RJFK 222300Z 35007KT CAVOK 02/02 Q1016 RMK A3001
RJFK 222200Z 36006KT 9999 FEW002 02/01 Q1016 RMK 1ST002 A3001
RJFK 222100Z 29003KT 250V010 9999 FEW045 01/01 Q1015 RMK 1CU045 A2998
RJFK 221200Z 31007KT 9999 FEW010 04/01 Q1014 RMK 1CU010 A2997
RJFK 221100Z 31010KT 9999 FEW010 04/01 Q1014 RMK 1CU010 A2996
RJFK 221000Z 32011KT 9999 FEW010 04/02 Q1014 RMK 1CU010 A2994
RJFK 220900Z 33010KT 9999 FEW010 05/03 Q1012 RMK 1CU010 A2990
RJFK 220800Z 32018KT 9999 FEW010 06/03 Q1011 RMK 1CU010 A2988
RJFK 220700Z 33015KT 9999 FEW010 SCT015 07/04 Q1011 RMK 1CU010 3CU015 A2986
RJFK 220600Z 32018KT 9999 FEW010 SCT020 09/05 Q1009 RMK 1CU010 3CU020 A2982
RJFK 220536Z 33015KT 9999 FEW005 SCT015 BKN035 09/05 Q1009 RMK 1ST005 3CU015 6CU035 A2981
RJFK 220500Z 28005KT 250V310 9999 FEW005 SCT008 BKN040 09/08 Q1009 RMK 1ST005 3ST008 5CU040 A2980
RJFK 220438Z 28010KT 9999 FEW003 SCT008 BKN015 09/07 Q1009 RMK 1ST003 3ST008 6CU015 A2980
RJFK 220400Z 04004KT 360V080 9999 FEW002 SCT060 08/07 Q1008 RMK 1ST002 3SC060 A2977
RJFK 220300Z 35009KT 9999 FEW003 SCT015 BKN025 06/05 Q1009 RMK 1ST003 3CU015 7CU025 A2981
RJFK 220200Z 33013KT 9000 -SHRA FEW001 SCT010 BKN020 06/05 Q1010 WS R34
RJFK 220100Z 35007KT 310V020 8000 -SHRA FEW001 SCT010 BKN020 07/06 Q1011 RMK 1ST001 3ST010 6CU020 A2986
RJFK 220000Z 36009KT 6000 -SHRA FEW001 SCT015 BKN025 06/06 Q1010 RMK 1ST001 4CU015 6CU025 A2983
RJFK 212332Z 34009KT 6000 SHRA FEW001 SCT015 BKN025 06/06 Q1010 RMK 1ST001 4CU015 6CU025 A2984
RJFK 212300Z 33008KT 6000 -RA FEW001 SCT005 BKN025 06/06 Q1010 RMK 1ST001 3ST005 5CU025 A2984
RJFK 212249Z 02006KT 350V060 5000 -RA BR FEW001 SCT025 BKN030 06/06 Q1010 RMK 1ST001 3CU025 5CU030 A2983
RJFK 212234Z 01005KT 4000 RA BR FEW001 BKN030 OVC080 06/06 Q1010 RMK 1ST001 6SC030 8AS080 A2983
RJFK 212216Z 35009KT 4000 -RA BR FEW001 BKN030 OVC080 06/06 Q1010 RMK 1ST001 7SC030 8AS080 A2984
RJFK 212200Z 34009KT 4000 RA BR FEW001 BKN030 OVC080 06/06 Q1010 RMK 1ST001 7SC030 8AS080 A2985
RJFK 212100Z 33003KT 4000 RA BR FEW001 BKN035 OVC080 05/05 Q1010 RMK 1ST001 7SC035 8AS080 A2984
RJFK 211200Z 08006KT 020V150 9999 VCVA FEW030 BKN160 BKN/// 09/02 Q1018 RMK 1CU030 5AC160 A3006 ASH FALL VOLCANIC ASH CLOUD S-W
RJFK 211100Z 10006KT 040V140 9999 FEW030 SCT180 09/02 Q1018 RMK 1CU030 4AC180 A3006
RJFK 211000Z 10005KT 070V140 9999 FEW030 BKN/// 09/02 Q1018 RMK 1CU030 A3007
RJFK 210900Z 10005KT 060V130 9999 FEW030 BKN/// 10/02 Q1017 RMK 1CU030 A3005 VOLCANIC ASH CLOUD S-SW
RJFK 210800Z 27004KT 9999 FEW040 BKN180 BKN/// 13/M03 Q1016 RMK 1CU040 5AC180 A3003 VOLCANIC ASH CLOUD S
RJFK 210700Z 20005KT 140V240 9999 FEW035 BKN/// 14/M02 Q1016
RJFK 210600Z 18005KT 160V220 CAVOK 14/M02 Q1016 RMK A3001 VOLCANIC ASH CLOUD S
RJFK 210500Z VRB01KT CAVOK 14/M08 Q1016 RMK A3003
RJFK 210400Z 36004KT 270V050 CAVOK 13/M09 Q1017 RMK A3005 VOLCANIC ASH CLOUD S